Reepham, United Kingdom
Current Conditions -  °F | °C
As of 12:50 AM on Thursday 27 Nov 2014 (Local Time) from EGXW Reporting Station
Moderate Fog Moderate Fog  
Wind Chill:   Ceiling: Unl
Heat Index:   Visibility: 0.06mi
Dew Point:   Wind: 1mph
Humidity: 100%   Direction: 10°N
Pressure: 29.71"   Gusts: NA
Location:  53.23°N, 0.43°W
Report Text: EGXW 270050Z 01001KT 0100 FG OVC000 08/08 Q1006 RED
Loading
Personal Weather Stations






























Interactive Weather Map New forecast layout! Learn more

10-Day Weather Forecast

Advertisements
Track Severe Weather on mobile